sensor_id;sensor_type;location;lat;lon;timestamp;temperature;humidity
46816;DHT22;32787;53.316;8.670;2023-06-14T00:00:18;15.30;70.40
46816;DHT22;32787;53.316;8.670;2023-06-14T00:02:44;15.30;70.20
46816;DHT22;32787;53.316;8.670;2023-06-14T00:05:09;15.30;70.30
46816;DHT22;32787;53.316;8.670;2023-06-14T00:07:41;15.60;70.10
46816;DHT22;32787;53.316;8.670;2023-06-14T00:10:14;15.30;70.60
46816;DHT22;32787;53.316;8.670;2023-06-14T00:12:40;15.20;71.20
46816;DHT22;32787;53.316;8.670;2023-06-14T00:15:07;15.30;71.00
46816;DHT22;32787;53.316;8.670;2023-06-14T00:17:35;15.40;70.70
46816;DHT22;32787;53.316;8.670;2023-06-14T00:20:03;15.30;71.20
46816;DHT22;32787;53.316;8.670;2023-06-14T00:22:33;15.30;71.30
46816;DHT22;32787;53.316;8.670;2023-06-14T00:24:59;15.30;71.30
46816;DHT22;32787;53.316;8.670;2023-06-14T00:27:25;15.30;71.50
46816;DHT22;32787;53.316;8.670;2023-06-14T00:29:51;15.30;71.80
46816;DHT22;32787;53.316;8.670;2023-06-14T00:32:18;15.30;71.70
46816;DHT22;32787;53.316;8.670;2023-06-14T00:34:44;15.20;72.10
46816;DHT22;32787;53.316;8.670;2023-06-14T00:37:10;15.20;72.30
46816;DHT22;32787;53.316;8.670;2023-06-14T00:39:35;15.30;72.20
46816;DHT22;32787;53.316;8.670;2023-06-14T00:42:01;15.10;72.50
46816;DHT22;32787;53.316;8.670;2023-06-14T00:44:27;15.10;72.70
46816;DHT22;32787;53.316;8.670;2023-06-14T00:46:52;15.10;73.30
46816;DHT22;32787;53.316;8.670;2023-06-14T00:49:19;15.10;73.40
46816;DHT22;32787;53.316;8.670;2023-06-14T00:51:45;15.30;72.60
46816;DHT22;32787;53.316;8.670;2023-06-14T00:54:11;15.00;73.40
46816;DHT22;32787;53.316;8.670;2023-06-14T00:56:37;14.80;74.20
46816;DHT22;32787;53.316;8.670;2023-06-14T00:59:03;14.70;74.80
46816;DHT22;32787;53.316;8.670;2023-06-14T01:01:30;14.60;75.10
46816;DHT22;32787;53.316;8.670;2023-06-14T01:03:58;14.60;75.50
46816;DHT22;32787;53.316;8.670;2023-06-14T01:09:18;14.80;74.80
46816;DHT22;32787;53.316;8.670;2023-06-14T01:12:01;14.60;75.40
46816;DHT22;32787;53.316;8.670;2023-06-14T01:14:31;14.40;76.10
46816;DHT22;32787;53.316;8.670;2023-06-14T01:16:58;14.40;76.10
46816;DHT22;32787;53.316;8.670;2023-06-14T01:19:26;14.40;76.00
46816;DHT22;32787;53.316;8.670;2023-06-14T01:21:55;14.60;75.70
46816;DHT22;32787;53.316;8.670;2023-06-14T01:24:21;14.40;76.30
46816;DHT22;32787;53.316;8.670;2023-06-14T01:26:53;14.60;75.90
46816;DHT22;32787;53.316;8.670;2023-06-14T01:29:22;14.60;76.00
46816;DHT22;32787;53.316;8.670;2023-06-14T01:31:48;14.60;75.70
46816;DHT22;32787;53.316;8.670;2023-06-14T01:34:15;14.60;75.90
46816;DHT22;32787;53.316;8.670;2023-06-14T01:36:42;14.60;75.90
46816;DHT22;32787;53.316;8.670;2023-06-14T01:39:11;14.60;76.00
46816;DHT22;32787;53.316;8.670;2023-06-14T01:41:39;14.40;76.30
46816;DHT22;32787;53.316;8.670;2023-06-14T01:44:06;14.70;76.00
46816;DHT22;32787;53.316;8.670;2023-06-14T01:46:32;14.70;75.70
46816;DHT22;32787;53.316;8.670;2023-06-14T01:48:58;14.70;75.70
46816;DHT22;32787;53.316;8.670;2023-06-14T01:51:24;14.60;76.40
46816;DHT22;32787;53.316;8.670;2023-06-14T01:53:50;14.50;76.50
46816;DHT22;32787;53.316;8.670;2023-06-14T01:56:16;14.40;77.00
46816;DHT22;32787;53.316;8.670;2023-06-14T01:58:41;14.50;76.80
46816;DHT22;32787;53.316;8.670;2023-06-14T02:01:07;14.60;76.60
46816;DHT22;32787;53.316;8.670;2023-06-14T02:03:33;14.70;76.50
46816;DHT22;32787;53.316;8.670;2023-06-14T02:05:59;14.80;75.80
46816;DHT22;32787;53.316;8.670;2023-06-14T02:08:26;14.70;76.50
46816;DHT22;32787;53.316;8.670;2023-06-14T02:10:51;14.50;76.70
46816;DHT22;32787;53.316;8.670;2023-06-14T02:13:17;14.50;77.00
46816;DHT22;32787;53.316;8.670;2023-06-14T02:15:43;14.30;77.40
46816;DHT22;32787;53.316;8.670;2023-06-14T02:18:09;14.30;77.70
46816;DHT22;32787;53.316;8.670;2023-06-14T02:20:35;14.30;78.00
46816;DHT22;32787;53.316;8.670;2023-06-14T02:23:01;14.30;78.00
46816;DHT22;32787;53.316;8.670;2023-06-14T02:25:26;14.20;78.20
46816;DHT22;32787;53.316;8.670;2023-06-14T02:27:55;14.20;78.70
46816;DHT22;32787;53.316;8.670;2023-06-14T02:30:21;14.30;78.30
46816;DHT22;32787;53.316;8.670;2023-06-14T02:32:47;14.40;77.80
46816;DHT22;32787;53.316;8.670;2023-06-14T02:35:14;14.10;78.70
46816;DHT22;32787;53.316;8.670;2023-06-14T02:37:40;14.10;78.70
46816;DHT22;32787;53.316;8.670;2023-06-14T02:40:06;13.90;79.50
46816;DHT22;32787;53.316;8.670;2023-06-14T02:42:34;13.90;79.60
46816;DHT22;32787;53.316;8.670;2023-06-14T02:45:00;13.80;79.60
46816;DHT22;32787;53.316;8.670;2023-06-14T02:47:25;13.80;80.00
46816;DHT22;32787;53.316;8.670;2023-06-14T02:49:51;13.70;80.30
46816;DHT22;32787;53.316;8.670;2023-06-14T02:52:17;13.90;80.20
46816;DHT22;32787;53.316;8.670;2023-06-14T02:54:42;13.80;80.40
46816;DHT22;32787;53.316;8.670;2023-06-14T02:57:08;13.80;80.30
46816;DHT22;32787;53.316;8.670;2023-06-14T02:59:34;13.90;80.00
46816;DHT22;32787;53.316;8.670;2023-06-14T03:02:00;14.00;80.00
46816;DHT22;32787;53.316;8.670;2023-06-14T03:04:26;14.30;79.10
46816;DHT22;32787;53.316;8.670;2023-06-14T03:06:52;14.20;79.30
46816;DHT22;32787;53.316;8.670;2023-06-14T03:09:19;14.20;79.30
46816;DHT22;32787;53.316;8.670;2023-06-14T03:11:45;14.20;79.30
46816;DHT22;32787;53.316;8.670;2023-06-14T03:14:11;14.00;79.70
46816;DHT22;32787;53.316;8.670;2023-06-14T03:16:39;14.20;79.50
46816;DHT22;32787;53.316;8.670;2023-06-14T03:19:06;14.10;79.90
46816;DHT22;32787;53.316;8.670;2023-06-14T03:21:32;14.00;79.90
46816;DHT22;32787;53.316;8.670;2023-06-14T03:23:58;13.90;80.50
46816;DHT22;32787;53.316;8.670;2023-06-14T03:26:23;14.10;79.70
46816;DHT22;32787;53.316;8.670;2023-06-14T03:28:50;13.90;80.10
46816;DHT22;32787;53.316;8.670;2023-06-14T03:31:16;14.00;80.10
46816;DHT22;32787;53.316;8.670;2023-06-14T03:33:41;13.90;80.20
46816;DHT22;32787;53.316;8.670;2023-06-14T03:36:07;13.90;80.60
46816;DHT22;32787;53.316;8.670;2023-06-14T03:38:33;13.80;80.80
46816;DHT22;32787;53.316;8.670;2023-06-14T03:40:59;13.80;81.40
46816;DHT22;32787;53.316;8.670;2023-06-14T03:43:25;14.10;80.70
46816;DHT22;32787;53.316;8.670;2023-06-14T03:45:51;14.10;80.40
46816;DHT22;32787;53.316;8.670;2023-06-14T03:48:17;14.20;79.90
46816;DHT22;32787;53.316;8.670;2023-06-14T03:50:43;14.10;80.30
46816;DHT22;32787;53.316;8.670;2023-06-14T03:53:10;14.20;80.60
46816;DHT22;32787;53.316;8.670;2023-06-14T03:55:35;14.20;80.50
46816;DHT22;32787;53.316;8.670;2023-06-14T03:58:03;14.10;80.20
46816;DHT22;32787;53.316;8.670;2023-06-14T04:00:29;14.20;80.20
46816;DHT22;32787;53.316;8.670;2023-06-14T04:02:54;14.10;80.60
46816;DHT22;32787;53.316;8.670;2023-06-14T04:05:20;14.20;80.40
46816;DHT22;32787;53.316;8.670;2023-06-14T04:07:46;14.00;81.30
46816;DHT22;32787;53.316;8.670;2023-06-14T04:10:15;13.90;81.50
46816;DHT22;32787;53.316;8.670;2023-06-14T04:12:41;13.80;82.00
46816;DHT22;32787;53.316;8.670;2023-06-14T04:15:07;13.90;82.00
46816;DHT22;32787;53.316;8.670;2023-06-14T04:17:34;13.90;81.90
46816;DHT22;32787;53.316;8.670;2023-06-14T04:20:01;13.90;82.10
46816;DHT22;32787;53.316;8.670;2023-06-14T04:22:27;13.90;82.20
46816;DHT22;32787;53.316;8.670;2023-06-14T04:24:56;14.00;82.10
46816;DHT22;32787;53.316;8.670;2023-06-14T04:27:31;14.30;80.90
46816;DHT22;32787;53.316;8.670;2023-06-14T04:29:59;14.30;81.00
46816;DHT22;32787;53.316;8.670;2023-06-14T04:32:28;14.40;81.10
46816;DHT22;32787;53.316;8.670;2023-06-14T04:34:58;14.30;81.30
46816;DHT22;32787;53.316;8.670;2023-06-14T04:37:25;14.50;80.80
46816;DHT22;32787;53.316;8.670;2023-06-14T04:39:54;14.60;80.50
46816;DHT22;32787;53.316;8.670;2023-06-14T04:42:21;14.40;80.90
46816;DHT22;32787;53.316;8.670;2023-06-14T04:44:50;14.30;81.40
46816;DHT22;32787;53.316;8.670;2023-06-14T04:47:17;14.30;81.30
46816;DHT22;32787;53.316;8.670;2023-06-14T04:49:42;14.50;81.00
46816;DHT22;32787;53.316;8.670;2023-06-14T04:52:08;14.50;81.10
46816;DHT22;32787;53.316;8.670;2023-06-14T04:54:36;14.50;81.10
46816;DHT22;32787;53.316;8.670;2023-06-14T04:57:07;14.60;80.90
46816;DHT22;32787;53.316;8.670;2023-06-14T04:59:32;14.80;80.50
46816;DHT22;32787;53.316;8.670;2023-06-14T05:02:01;14.80;80.40
46816;DHT22;32787;53.316;8.670;2023-06-14T05:04:27;15.00;80.20
46816;DHT22;32787;53.316;8.670;2023-06-14T05:06:54;14.90;79.90
46816;DHT22;32787;53.316;8.670;2023-06-14T05:09:22;15.00;79.60
46816;DHT22;32787;53.316;8.670;2023-06-14T05:11:48;15.00;79.80
46816;DHT22;32787;53.316;8.670;2023-06-14T05:14:14;15.10;79.90
46816;DHT22;32787;53.316;8.670;2023-06-14T05:16:40;15.10;79.30
46816;DHT22;32787;53.316;8.670;2023-06-14T05:19:06;15.30;79.00
46816;DHT22;32787;53.316;8.670;2023-06-14T05:21:32;15.30;78.50
46816;DHT22;32787;53.316;8.670;2023-06-14T05:24:00;15.40;78.60
46816;DHT22;32787;53.316;8.670;2023-06-14T05:26:26;15.50;77.70
46816;DHT22;32787;53.316;8.670;2023-06-14T05:28:58;15.60;77.50
46816;DHT22;32787;53.316;8.670;2023-06-14T05:31:26;15.70;76.70
46816;DHT22;32787;53.316;8.670;2023-06-14T05:33:52;15.70;76.60
46816;DHT22;32787;53.316;8.670;2023-06-14T05:36:19;15.80;76.00
46816;DHT22;32787;53.316;8.670;2023-06-14T05:38:46;15.80;75.80
46816;DHT22;32787;53.316;8.670;2023-06-14T05:41:12;15.80;76.10
46816;DHT22;32787;53.316;8.670;2023-06-14T05:43:38;15.90;75.50
46816;DHT22;32787;53.316;8.670;2023-06-14T05:46:03;16.00;74.70
46816;DHT22;32787;53.316;8.670;2023-06-14T05:48:30;16.00;75.50
46816;DHT22;32787;53.316;8.670;2023-06-14T05:50:56;16.20;74.80
46816;DHT22;32787;53.316;8.670;2023-06-14T05:53:22;16.20;73.90
46816;DHT22;32787;53.316;8.670;2023-06-14T05:55:48;16.30;73.80
46816;DHT22;32787;53.316;8.670;2023-06-14T05:58:14;16.30;73.00
46816;DHT22;32787;53.316;8.670;2023-06-14T06:00:40;16.40;72.90
46816;DHT22;32787;53.316;8.670;2023-06-14T06:03:05;16.40;73.30
46816;DHT22;32787;53.316;8.670;2023-06-14T06:05:33;16.50;73.00
46816;DHT22;32787;53.316;8.670;2023-06-14T06:07:59;16.50;72.10
46816;DHT22;32787;53.316;8.670;2023-06-14T06:10:25;16.50;71.80
46816;DHT22;32787;53.316;8.670;2023-06-14T06:12:51;16.60;72.20
46816;DHT22;32787;53.316;8.670;2023-06-14T06:15:17;16.70;72.10
46816;DHT22;32787;53.316;8.670;2023-06-14T06:17:44;16.90;72.00
46816;DHT22;32787;53.316;8.670;2023-06-14T06:20:10;17.10;71.30
46816;DHT22;32787;53.316;8.670;2023-06-14T06:22:37;17.10;70.60
46816;DHT22;32787;53.316;8.670;2023-06-14T06:25:03;17.10;69.60
46816;DHT22;32787;53.316;8.670;2023-06-14T06:27:29;17.10;69.90
46816;DHT22;32787;53.316;8.670;2023-06-14T06:29:55;17.20;69.80
46816;DHT22;32787;53.316;8.670;2023-06-14T06:32:21;17.30;68.80
46816;DHT22;32787;53.316;8.670;2023-06-14T06:34:47;17.40;68.50
46816;DHT22;32787;53.316;8.670;2023-06-14T06:37:13;17.40;67.90
46816;DHT22;32787;53.316;8.670;2023-06-14T06:39:39;17.50;67.80
46816;DHT22;32787;53.316;8.670;2023-06-14T06:42:05;17.60;66.50
46816;DHT22;32787;53.316;8.670;2023-06-14T06:44:32;17.60;67.60
46816;DHT22;32787;53.316;8.670;2023-06-14T06:46:58;17.60;68.20
46816;DHT22;32787;53.316;8.670;2023-06-14T06:49:23;17.70;67.20
46816;DHT22;32787;53.316;8.670;2023-06-14T06:52:06;17.80;65.60
46816;DHT22;32787;53.316;8.670;2023-06-14T06:54:32;17.80;66.00
46816;DHT22;32787;53.316;8.670;2023-06-14T06:56:58;17.90;65.40
46816;DHT22;32787;53.316;8.670;2023-06-14T06:59:24;18.00;65.80
46816;DHT22;32787;53.316;8.670;2023-06-14T07:01:50;18.10;65.30
46816;DHT22;32787;53.316;8.670;2023-06-14T07:04:16;18.10;65.40
46816;DHT22;32787;53.316;8.670;2023-06-14T07:06:42;18.30;65.60
46816;DHT22;32787;53.316;8.670;2023-06-14T07:09:08;18.30;64.10
46816;DHT22;32787;53.316;8.670;2023-06-14T07:11:38;18.30;65.30
46816;DHT22;32787;53.316;8.670;2023-06-14T07:14:04;18.40;64.20
46816;DHT22;32787;53.316;8.670;2023-06-14T07:16:30;18.50;63.10
46816;DHT22;32787;53.316;8.670;2023-06-14T07:18:56;18.50;62.90
46816;DHT22;32787;53.316;8.670;2023-06-14T07:21:21;18.50;62.40
46816;DHT22;32787;53.316;8.670;2023-06-14T07:23:47;18.60;63.00
46816;DHT22;32787;53.316;8.670;2023-06-14T07:26:13;18.60;62.10
46816;DHT22;32787;53.316;8.670;2023-06-14T07:28:38;18.60;63.30
46816;DHT22;32787;53.316;8.670;2023-06-14T07:31:04;18.70;62.90
46816;DHT22;32787;53.316;8.670;2023-06-14T07:33:30;18.80;61.20
46816;DHT22;32787;53.316;8.670;2023-06-14T07:35:55;18.90;61.70
46816;DHT22;32787;53.316;8.670;2023-06-14T07:38:21;19.00;60.60
46816;DHT22;32787;53.316;8.670;2023-06-14T07:40:47;19.00;60.30
46816;DHT22;32787;53.316;8.670;2023-06-14T07:43:12;19.00;60.70
46816;DHT22;32787;53.316;8.670;2023-06-14T07:45:38;19.10;60.90
46816;DHT22;32787;53.316;8.670;2023-06-14T07:48:04;19.20;60.90
46816;DHT22;32787;53.316;8.670;2023-06-14T07:50:30;19.20;59.30
46816;DHT22;32787;53.316;8.670;2023-06-14T07:52:55;19.20;58.60
46816;DHT22;32787;53.316;8.670;2023-06-14T07:55:21;19.50;57.90
46816;DHT22;32787;53.316;8.670;2023-06-14T07:57:47;19.60;57.40
46816;DHT22;32787;53.316;8.670;2023-06-14T08:00:13;19.60;56.60
46816;DHT22;32787;53.316;8.670;2023-06-14T08:02:44;19.60;56.50
46816;DHT22;32787;53.316;8.670;2023-06-14T08:05:10;19.60;55.00
46816;DHT22;32787;53.316;8.670;2023-06-14T08:07:39;19.80;55.40
46816;DHT22;32787;53.316;8.670;2023-06-14T08:10:06;19.90;55.20
46816;DHT22;32787;53.316;8.670;2023-06-14T08:12:33;20.00;54.10
46816;DHT22;32787;53.316;8.670;2023-06-14T08:14:59;19.90;54.90
46816;DHT22;32787;53.316;8.670;2023-06-14T08:17:25;20.00;54.90
46816;DHT22;32787;53.316;8.670;2023-06-14T08:19:50;20.00;53.80
46816;DHT22;32787;53.316;8.670;2023-06-14T08:22:17;20.10;54.00
46816;DHT22;32787;53.316;8.670;2023-06-14T08:24:43;20.10;52.80
46816;DHT22;32787;53.316;8.670;2023-06-14T08:27:11;20.10;52.70
46816;DHT22;32787;53.316;8.670;2023-06-14T08:29:36;20.40;52.60
46816;DHT22;32787;53.316;8.670;2023-06-14T08:32:04;20.30;52.00
46816;DHT22;32787;53.316;8.670;2023-06-14T08:34:30;20.30;50.80
46816;DHT22;32787;53.316;8.670;2023-06-14T08:36:56;20.30;52.30
46816;DHT22;32787;53.316;8.670;2023-06-14T08:39:21;20.30;52.20
46816;DHT22;32787;53.316;8.670;2023-06-14T08:41:47;20.30;52.20
46816;DHT22;32787;53.316;8.670;2023-06-14T08:44:16;20.20;52.60
46816;DHT22;32787;53.316;8.670;2023-06-14T08:46:42;20.40;52.40
46816;DHT22;32787;53.316;8.670;2023-06-14T08:49:09;20.60;52.00
46816;DHT22;32787;53.316;8.670;2023-06-14T08:51:36;20.50;50.40
46816;DHT22;32787;53.316;8.670;2023-06-14T08:54:03;20.40;51.00
46816;DHT22;32787;53.316;8.670;2023-06-14T08:56:30;20.40;51.70
46816;DHT22;32787;53.316;8.670;2023-06-14T08:59:00;20.60;52.00
46816;DHT22;32787;53.316;8.670;2023-06-14T09:01:33;20.80;51.10
46816;DHT22;32787;53.316;8.670;2023-06-14T09:04:00;20.90;49.50
46816;DHT22;32787;53.316;8.670;2023-06-14T09:06:25;20.80;50.20
46816;DHT22;32787;53.316;8.670;2023-06-14T09:08:55;20.70;50.70
46816;DHT22;32787;53.316;8.670;2023-06-14T09:11:23;20.80;50.30
46816;DHT22;32787;53.316;8.670;2023-06-14T09:13:49;20.80;50.00
46816;DHT22;32787;53.316;8.670;2023-06-14T09:16:16;20.90;51.20
46816;DHT22;32787;53.316;8.670;2023-06-14T09:18:43;20.90;50.00
46816;DHT22;32787;53.316;8.670;2023-06-14T09:21:11;21.30;50.00
46816;DHT22;32787;53.316;8.670;2023-06-14T09:23:41;21.50;48.10
46816;DHT22;32787;53.316;8.670;2023-06-14T09:28:40;21.50;47.90
46816;DHT22;32787;53.316;8.670;2023-06-14T09:31:07;21.60;48.00
46816;DHT22;32787;53.316;8.670;2023-06-14T09:33:34;21.60;48.40
46816;DHT22;32787;53.316;8.670;2023-06-14T09:36:00;21.70;47.30
46816;DHT22;32787;53.316;8.670;2023-06-14T09:38:25;21.70;49.00
46816;DHT22;32787;53.316;8.670;2023-06-14T09:40:52;21.80;48.10
46816;DHT22;32787;53.316;8.670;2023-06-14T09:43:17;22.00;47.10
46816;DHT22;32787;53.316;8.670;2023-06-14T09:45:45;22.00;45.90
46816;DHT22;32787;53.316;8.670;2023-06-14T09:48:14;22.00;47.50
46816;DHT22;32787;53.316;8.670;2023-06-14T09:50:45;22.00;47.50
46816;DHT22;32787;53.316;8.670;2023-06-14T09:53:12;22.00;46.40
46816;DHT22;32787;53.316;8.670;2023-06-14T09:55:40;22.00;46.70
46816;DHT22;32787;53.316;8.670;2023-06-14T09:58:07;22.00;46.30
46816;DHT22;32787;53.316;8.670;2023-06-14T10:00:34;21.80;46.90
46816;DHT22;32787;53.316;8.670;2023-06-14T10:03:16;21.80;46.80
46816;DHT22;32787;53.316;8.670;2023-06-14T10:05:48;22.00;47.30
46816;DHT22;32787;53.316;8.670;2023-06-14T10:08:18;22.10;46.50
46816;DHT22;32787;53.316;8.670;2023-06-14T10:10:45;22.20;46.70
46816;DHT22;32787;53.316;8.670;2023-06-14T10:13:11;22.10;47.30
46816;DHT22;32787;53.316;8.670;2023-06-14T10:15:57;22.30;47.80
46816;DHT22;32787;53.316;8.670;2023-06-14T10:18:51;22.30;45.60
46816;DHT22;32787;53.316;8.670;2023-06-14T10:21:46;22.30;47.10
46816;DHT22;32787;53.316;8.670;2023-06-14T10:24:17;22.30;45.80
46816;DHT22;32787;53.316;8.670;2023-06-14T10:26:56;22.30;45.90
46816;DHT22;32787;53.316;8.670;2023-06-14T10:29:23;22.40;45.80
46816;DHT22;32787;53.316;8.670;2023-06-14T10:31:50;22.40;46.10
46816;DHT22;32787;53.316;8.670;2023-06-14T10:34:26;22.50;45.40
46816;DHT22;32787;53.316;8.670;2023-06-14T10:37:12;22.50;45.10
46816;DHT22;32787;53.316;8.670;2023-06-14T10:42:05;22.40;45.10
46816;DHT22;32787;53.316;8.670;2023-06-14T10:44:32;22.60;45.30
46816;DHT22;32787;53.316;8.670;2023-06-14T10:46:59;22.80;44.50
46816;DHT22;32787;53.316;8.670;2023-06-14T10:49:43;23.00;44.30
46816;DHT22;32787;53.316;8.670;2023-06-14T10:52:14;22.90;44.90
46816;DHT22;32787;53.316;8.670;2023-06-14T10:57:24;23.40;43.20
46816;DHT22;32787;53.316;8.670;2023-06-14T10:59:50;23.50;42.90
46816;DHT22;32787;53.316;8.670;2023-06-14T11:04:51;23.70;42.10
46816;DHT22;32787;53.316;8.670;2023-06-14T11:12:27;23.80;43.40
46816;DHT22;32787;53.316;8.670;2023-06-14T11:14:53;24.30;40.50
46816;DHT22;32787;53.316;8.670;2023-06-14T11:17:19;25.20;38.90
46816;DHT22;32787;53.316;8.670;2023-06-14T11:19:45;26.00;36.80
46816;DHT22;32787;53.316;8.670;2023-06-14T11:22:11;26.70;35.80
46816;DHT22;32787;53.316;8.670;2023-06-14T11:24:37;27.80;34.70
46816;DHT22;32787;53.316;8.670;2023-06-14T11:27:03;28.20;33.20
46816;DHT22;32787;53.316;8.670;2023-06-14T11:29:29;28.00;33.70
46816;DHT22;32787;53.316;8.670;2023-06-14T11:31:56;28.50;33.30
46816;DHT22;32787;53.316;8.670;2023-06-14T11:34:21;28.40;32.00
46816;DHT22;32787;53.316;8.670;2023-06-14T11:36:47;27.70;34.20
46816;DHT22;32787;53.316;8.670;2023-06-14T11:39:13;26.20;34.60
46816;DHT22;32787;53.316;8.670;2023-06-14T11:41:41;24.90;36.90
46816;DHT22;32787;53.316;8.670;2023-06-14T11:44:07;24.50;38.60
46816;DHT22;32787;53.316;8.670;2023-06-14T11:46:34;24.20;38.20
46816;DHT22;32787;53.316;8.670;2023-06-14T11:49:02;24.20;40.30
46816;DHT22;32787;53.316;8.670;2023-06-14T11:51:32;24.00;39.50
46816;DHT22;32787;53.316;8.670;2023-06-14T11:53:59;24.00;41.30
46816;DHT22;32787;53.316;8.670;2023-06-14T11:56:25;23.80;41.20
46816;DHT22;32787;53.316;8.670;2023-06-14T11:58:52;23.90;41.40
46816;DHT22;32787;53.316;8.670;2023-06-14T12:01:21;24.10;41.00
46816;DHT22;32787;53.316;8.670;2023-06-14T12:03:50;24.20;41.20
46816;DHT22;32787;53.316;8.670;2023-06-14T12:06:26;23.80;41.50
46816;DHT22;32787;53.316;8.670;2023-06-14T12:08:56;23.30;42.20
46816;DHT22;32787;53.316;8.670;2023-06-14T12:11:22;23.10;42.70
46816;DHT22;32787;53.316;8.670;2023-06-14T12:13:49;23.50;41.50
46816;DHT22;32787;53.316;8.670;2023-06-14T12:16:14;24.30;39.80
46816;DHT22;32787;53.316;8.670;2023-06-14T12:18:41;24.20;39.80
46816;DHT22;32787;53.316;8.670;2023-06-14T12:21:09;24.10;41.40
46816;DHT22;32787;53.316;8.670;2023-06-14T12:23:48;24.00;41.10
46816;DHT22;32787;53.316;8.670;2023-06-14T12:26:19;23.60;41.20
46816;DHT22;32787;53.316;8.670;2023-06-14T12:28:46;23.20;42.00
46816;DHT22;32787;53.316;8.670;2023-06-14T12:31:12;23.10;42.60
46816;DHT22;32787;53.316;8.670;2023-06-14T12:33:39;23.00;42.50
46816;DHT22;32787;53.316;8.670;2023-06-14T12:36:07;23.10;42.60
46816;DHT22;32787;53.316;8.670;2023-06-14T12:38:34;23.40;41.70
46816;DHT22;32787;53.316;8.670;2023-06-14T12:41:00;23.40;42.40
46816;DHT22;32787;53.316;8.670;2023-06-14T12:43:25;25.10;40.20
46816;DHT22;32787;53.316;8.670;2023-06-14T12:45:51;27.00;36.80
46816;DHT22;32787;53.316;8.670;2023-06-14T12:48:17;27.90;34.70
46816;DHT22;32787;53.316;8.670;2023-06-14T12:50:43;27.00;34.30
46816;DHT22;32787;53.316;8.670;2023-06-14T12:53:08;25.70;37.00
46816;DHT22;32787;53.316;8.670;2023-06-14T12:55:34;25.10;38.20
46816;DHT22;32787;53.316;8.670;2023-06-14T12:58:00;24.80;38.20
46816;DHT22;32787;53.316;8.670;2023-06-14T13:00:26;24.40;39.00
46816;DHT22;32787;53.316;8.670;2023-06-14T13:02:52;24.20;40.00
46816;DHT22;32787;53.316;8.670;2023-06-14T13:05:18;23.90;40.80
46816;DHT22;32787;53.316;8.670;2023-06-14T13:07:44;23.90;40.60
46816;DHT22;32787;53.316;8.670;2023-06-14T13:10:10;24.10;41.00
46816;DHT22;32787;53.316;8.670;2023-06-14T13:12:39;24.30;39.60
46816;DHT22;32787;53.316;8.670;2023-06-14T13:15:06;24.80;39.70
46816;DHT22;32787;53.316;8.670;2023-06-14T13:17:34;25.90;37.40
46816;DHT22;32787;53.316;8.670;2023-06-14T13:20:07;27.20;35.40
46816;DHT22;32787;53.316;8.670;2023-06-14T13:22:36;29.10;32.10
46816;DHT22;32787;53.316;8.670;2023-06-14T13:25:03;29.80;31.10
46816;DHT22;32787;53.316;8.670;2023-06-14T13:27:29;29.70;30.30
46816;DHT22;32787;53.316;8.670;2023-06-14T13:29:55;29.90;29.80
46816;DHT22;32787;53.316;8.670;2023-06-14T13:32:21;29.60;31.40
46816;DHT22;32787;53.316;8.670;2023-06-14T13:34:47;28.70;31.80
46816;DHT22;32787;53.316;8.670;2023-06-14T13:37:13;26.70;35.20
46816;DHT22;32787;53.316;8.670;2023-06-14T13:39:39;26.20;35.70
46816;DHT22;32787;53.316;8.670;2023-06-14T13:42:05;26.90;35.00
46816;DHT22;32787;53.316;8.670;2023-06-14T13:44:30;28.60;32.60
46816;DHT22;32787;53.316;8.670;2023-06-14T13:46:56;29.20;31.30
46816;DHT22;32787;53.316;8.670;2023-06-14T13:49:22;30.60;29.90
46816;DHT22;32787;53.316;8.670;2023-06-14T13:51:48;31.50;28.60
46816;DHT22;32787;53.316;8.670;2023-06-14T13:54:13;31.50;27.80
46816;DHT22;32787;53.316;8.670;2023-06-14T13:56:41;30.80;28.10
46816;DHT22;32787;53.316;8.670;2023-06-14T13:59:06;30.30;28.50
46816;DHT22;32787;53.316;8.670;2023-06-14T14:01:32;31.10;27.70
46816;DHT22;32787;53.316;8.670;2023-06-14T14:03:58;32.20;26.40
46816;DHT22;32787;53.316;8.670;2023-06-14T14:06:26;31.00;28.10
46816;DHT22;32787;53.316;8.670;2023-06-14T14:08:51;31.00;28.10
46816;DHT22;32787;53.316;8.670;2023-06-14T14:11:18;31.00;28.60
46816;DHT22;32787;53.316;8.670;2023-06-14T14:13:44;30.20;29.60
46816;DHT22;32787;53.316;8.670;2023-06-14T14:16:10;28.90;30.80
46816;DHT22;32787;53.316;8.670;2023-06-14T14:18:36;28.60;31.20
46816;DHT22;32787;53.316;8.670;2023-06-14T14:21:03;27.80;32.20
46816;DHT22;32787;53.316;8.670;2023-06-14T14:23:28;27.10;33.60
46816;DHT22;32787;53.316;8.670;2023-06-14T14:25:55;28.60;31.90
46816;DHT22;32787;53.316;8.670;2023-06-14T14:28:20;28.90;31.10
46816;DHT22;32787;53.316;8.670;2023-06-14T14:30:47;31.00;28.70
46816;DHT22;32787;53.316;8.670;2023-06-14T14:33:16;30.70;27.50
46816;DHT22;32787;53.316;8.670;2023-06-14T14:35:43;30.70;28.90
46816;DHT22;32787;53.316;8.670;2023-06-14T14:38:11;30.70;28.60
46816;DHT22;32787;53.316;8.670;2023-06-14T14:40:37;32.30;26.80
46816;DHT22;32787;53.316;8.670;2023-06-14T14:43:03;31.20;27.90
46816;DHT22;32787;53.316;8.670;2023-06-14T14:45:28;29.70;28.40
46816;DHT22;32787;53.316;8.670;2023-06-14T14:47:54;28.20;30.50
46816;DHT22;32787;53.316;8.670;2023-06-14T14:50:20;27.50;31.70
46816;DHT22;32787;53.316;8.670;2023-06-14T14:52:46;27.00;33.40
46816;DHT22;32787;53.316;8.670;2023-06-14T14:55:12;26.70;35.30
46816;DHT22;32787;53.316;8.670;2023-06-14T14:57:37;26.00;36.10
46816;DHT22;32787;53.316;8.670;2023-06-14T15:00:04;25.50;36.80
46816;DHT22;32787;53.316;8.670;2023-06-14T15:02:31;25.40;36.80
46816;DHT22;32787;53.316;8.670;2023-06-14T15:04:56;25.30;37.30
46816;DHT22;32787;53.316;8.670;2023-06-14T15:07:30;25.40;37.60
46816;DHT22;32787;53.316;8.670;2023-06-14T15:09:56;26.10;36.00
46816;DHT22;32787;53.316;8.670;2023-06-14T15:12:22;27.30;34.20
46816;DHT22;32787;53.316;8.670;2023-06-14T15:14:50;27.80;34.10
46816;DHT22;32787;53.316;8.670;2023-06-14T15:17:20;28.50;32.70
46816;DHT22;32787;53.316;8.670;2023-06-14T15:19:47;29.30;31.30
46816;DHT22;32787;53.316;8.670;2023-06-14T15:22:13;29.80;29.00
46816;DHT22;32787;53.316;8.670;2023-06-14T15:24:40;30.10;29.50
46816;DHT22;32787;53.316;8.670;2023-06-14T15:27:06;30.90;29.20
46816;DHT22;32787;53.316;8.670;2023-06-14T15:29:32;31.20;28.80
46816;DHT22;32787;53.316;8.670;2023-06-14T15:31:58;30.50;28.50
46816;DHT22;32787;53.316;8.670;2023-06-14T15:34:23;30.40;29.40
46816;DHT22;32787;53.316;8.670;2023-06-14T15:36:49;30.60;27.90
46816;DHT22;32787;53.316;8.670;2023-06-14T15:39:15;30.60;29.10
46816;DHT22;32787;53.316;8.670;2023-06-14T15:41:41;29.50;30.50
46816;DHT22;32787;53.316;8.670;2023-06-14T15:44:07;29.80;28.20
46816;DHT22;32787;53.316;8.670;2023-06-14T15:46:33;29.70;28.30